Fizuli, Azerbaijan
Current Conditions -  °F | °C
As of 8:00 AM on Saturday 22 Nov 2014 (Local Time) from UBEE Reporting Station
Broken Clouds Broken Clouds  
Wind Chill:   Ceiling: 2600
Heat Index:   Visibility: 6mi
Dew Point:   Wind: 0mph
Humidity: 93%   Direction: NA
Pressure: 29.97"   Gusts: NA
Location:  39.6°N, 47.15°E
Report Text: UBEE 220300Z 00000KT 9000 BKN02606/05 Q1015 R30/CLRD70 NOSIG
Loading
Personal Weather Stations






























Interactive Weather Map New forecast layout! Learn more

10-Day Weather Forecast

Advertisements
Track Severe Weather on mobile